createdAt,value
2018-07-24T00:00:40.943Z,1010.68
2018-07-24T00:01:40.942Z,1010.67
2018-07-24T00:02:40.954Z,1010.66
2018-07-24T00:03:40.956Z,1010.67
2018-07-24T00:04:40.960Z,1010.66
2018-07-24T00:05:40.970Z,1010.60
2018-07-24T00:06:41.009Z,1010.61
2018-07-24T00:07:40.993Z,1010.62
2018-07-24T00:08:40.994Z,1010.60
2018-07-24T00:09:40.999Z,1010.60
2018-07-24T00:10:41.002Z,1010.59
2018-07-24T00:11:41.029Z,1010.60
2018-07-24T00:12:41.038Z,1010.53
2018-07-24T00:13:41.024Z,1010.62
2018-07-24T00:14:41.033Z,1010.60
2018-07-24T00:15:41.042Z,1010.58
2018-07-24T00:16:41.051Z,1010.62
2018-07-24T00:17:41.055Z,1010.59
2018-07-24T00:18:41.062Z,1010.58
2018-07-24T00:19:41.079Z,1010.60
2018-07-24T00:20:41.074Z,1010.59
2018-07-24T00:21:41.084Z,1010.58
2018-07-24T00:22:41.093Z,1010.59
2018-07-24T00:23:41.093Z,1010.59
2018-07-24T00:24:41.100Z,1010.59
2018-07-24T00:25:41.106Z,1010.58
2018-07-24T00:26:41.117Z,1010.54
2018-07-24T00:27:41.127Z,1010.55
2018-07-24T00:28:41.125Z,1010.60
2018-07-24T00:29:41.143Z,1010.53
2018-07-24T00:30:41.147Z,1010.58
2018-07-24T00:31:41.153Z,1010.54
2018-07-24T00:32:41.161Z,1010.53
2018-07-24T00:33:41.160Z,1010.55
2018-07-24T00:34:41.177Z,1010.51
2018-07-24T00:35:41.179Z,1010.50
2018-07-24T00:36:41.184Z,1010.51
2018-07-24T00:37:41.196Z,1010.49
2018-07-24T00:38:41.195Z,1010.47
2018-07-24T00:39:41.213Z,1010.48
2018-07-24T00:40:41.219Z,1010.47
2018-07-24T00:41:41.219Z,1010.46
2018-07-24T00:42:41.233Z,1010.43
2018-07-24T00:43:41.234Z,1010.44
2018-07-24T00:44:41.239Z,1010.41
2018-07-24T00:45:41.249Z,1010.40
2018-07-24T00:46:41.256Z,1010.40
2018-07-24T00:47:41.275Z,1010.42
2018-07-24T00:48:41.271Z,1010.39
2018-07-24T00:49:41.281Z,1010.39
2018-07-24T00:50:41.283Z,1010.40
2018-07-24T00:51:41.300Z,1010.40
2018-07-24T00:52:41.296Z,1010.40
2018-07-24T00:53:41.304Z,1010.40
2018-07-24T00:54:41.314Z,1010.40
2018-07-24T00:55:41.313Z,1010.40
2018-07-24T00:56:41.327Z,1010.38
2018-07-24T00:57:41.336Z,1010.40
2018-07-24T00:58:41.344Z,1010.37
2018-07-24T00:59:41.349Z,1010.36
2018-07-24T01:00:41.354Z,1010.37
2018-07-24T01:01:41.360Z,1010.36
2018-07-24T01:02:41.364Z,1010.34
2018-07-24T01:03:41.379Z,1010.33
2018-07-24T01:04:41.380Z,1010.35
2018-07-24T01:05:41.378Z,1010.33
2018-07-24T01:06:41.392Z,1010.35
2018-07-24T01:07:41.405Z,1010.33
2018-07-24T01:08:41.428Z,1010.30
2018-07-24T01:09:41.418Z,1010.31
2018-07-24T01:10:41.419Z,1010.30
2018-07-24T01:11:41.425Z,1010.29
2018-07-24T01:12:41.434Z,1010.29
2018-07-24T01:13:41.434Z,1010.29
2018-07-24T01:14:41.442Z,1010.28
2018-07-24T01:15:41.454Z,1010.27
2018-07-24T01:16:41.461Z,1010.28
2018-07-24T01:17:41.458Z,1010.29
2018-07-24T01:18:41.471Z,1010.29
2018-07-24T01:19:41.477Z,1010.31
2018-07-24T01:20:41.492Z,1010.29
2018-07-24T01:21:41.488Z,1010.32
2018-07-24T01:22:41.493Z,1010.32
2018-07-24T01:23:41.511Z,1010.29
2018-07-24T01:24:41.514Z,1010.31
2018-07-24T01:25:41.521Z,1010.34
2018-07-24T01:26:41.532Z,1010.34
2018-07-24T01:27:41.524Z,1010.38
2018-07-24T01:28:41.534Z,1010.34
2018-07-24T01:29:41.544Z,1010.40
2018-07-24T01:30:41.550Z,1010.36
2018-07-24T01:31:41.558Z,1010.35
2018-07-24T01:32:41.565Z,1010.33
2018-07-24T01:33:41.569Z,1010.31
2018-07-24T01:34:41.586Z,1010.30
2018-07-24T01:35:41.583Z,1010.29
2018-07-24T01:36:41.595Z,1010.32
2018-07-24T01:37:41.594Z,1010.29
2018-07-24T01:38:41.609Z,1010.30
2018-07-24T01:39:41.606Z,1010.30
2018-07-24T01:40:41.611Z,1010.29
2018-07-24T01:41:41.628Z,1010.28
2018-07-24T01:42:41.626Z,1010.29
2018-07-24T01:43:41.641Z,1010.31
2018-07-24T01:44:41.640Z,1010.30
2018-07-24T01:45:41.654Z,1010.29
2018-07-24T01:46:41.652Z,1010.25
2018-07-24T01:47:41.666Z,1010.25
2018-07-24T01:48:41.675Z,1010.25
2018-07-24T01:49:41.672Z,1010.27
2018-07-24T01:50:41.686Z,1010.24
2018-07-24T01:51:41.685Z,1010.25
2018-07-24T01:52:41.694Z,1010.26
2018-07-24T01:53:41.704Z,1010.24
2018-07-24T01:54:41.712Z,1010.29
2018-07-24T01:55:41.719Z,1010.25
2018-07-24T01:56:41.719Z,1010.27
2018-07-24T01:57:41.722Z,1010.27
2018-07-24T01:58:41.731Z,1010.28
2018-07-24T01:59:41.740Z,1010.29
2018-07-24T02:00:41.744Z,1010.31
2018-07-24T02:01:41.754Z,1010.30
2018-07-24T02:02:41.758Z,1010.30
2018-07-24T02:03:41.768Z,1010.29
2018-07-24T02:04:41.771Z,1010.28
2018-07-24T02:05:41.782Z,1010.28
2018-07-24T02:06:41.784Z,1010.29
2018-07-24T02:07:41.797Z,1010.29
2018-07-24T02:08:41.802Z,1010.26
2018-07-24T02:09:41.801Z,1010.24
2018-07-24T02:10:41.817Z,1010.24
2018-07-24T02:11:41.822Z,1010.23
2018-07-24T02:12:41.828Z,1010.23
2018-07-24T02:13:41.836Z,1010.27
2018-07-24T02:14:41.833Z,1010.29
2018-07-24T02:15:41.842Z,1010.26
2018-07-24T02:16:41.847Z,1010.27
2018-07-24T02:17:41.865Z,1010.30
2018-07-24T02:18:41.868Z,1010.27
2018-07-24T02:19:41.873Z,1010.28
2018-07-24T02:20:41.876Z,1010.27
2018-07-24T02:21:41.884Z,1010.27
2018-07-24T02:22:41.893Z,1010.23
2018-07-24T02:23:41.890Z,1010.25
2018-07-24T02:24:41.901Z,1010.25
2018-07-24T02:25:41.919Z,1010.22
2018-07-24T02:26:41.920Z,1010.25
2018-07-24T02:27:41.930Z,1010.22
2018-07-24T02:28:41.932Z,1010.22
2018-07-24T02:29:41.932Z,1010.19
2018-07-24T02:30:41.947Z,1010.19
2018-07-24T02:31:41.965Z,1010.22
2018-07-24T02:32:42.014Z,1010.24
2018-07-24T02:33:41.952Z,1010.26
2018-07-24T02:34:41.972Z,1010.25
2018-07-24T02:35:41.968Z,1010.23
2018-07-24T02:36:41.979Z,1010.24
2018-07-24T02:37:41.977Z,1010.23
2018-07-24T02:38:41.988Z,1010.21
2018-07-24T02:39:42.008Z,1010.23
2018-07-24T02:40:41.996Z,1010.22
2018-07-24T02:41:42.008Z,1010.24
2018-07-24T02:42:42.011Z,1010.22
2018-07-24T02:43:42.024Z,1010.20
2018-07-24T02:44:42.021Z,1010.19
2018-07-24T02:45:42.034Z,1010.20
2018-07-24T02:46:42.045Z,1010.17
2018-07-24T02:47:42.050Z,1010.21
2018-07-24T02:48:42.050Z,1010.20
2018-07-24T02:49:42.057Z,1010.16
2018-07-24T02:50:42.070Z,1010.17
2018-07-24T02:51:42.075Z,1010.15
2018-07-24T02:52:42.077Z,1010.19
2018-07-24T02:53:42.123Z,1010.20
2018-07-24T02:54:42.111Z,1010.14
2018-07-24T02:55:42.098Z,1010.21
2018-07-24T02:56:42.103Z,1010.20
2018-07-24T02:57:42.108Z,1010.20
2018-07-24T02:58:42.113Z,1010.21
2018-07-24T02:59:42.114Z,1010.19
2018-07-24T03:00:42.643Z,1010.20
2018-07-24T03:01:42.129Z,1010.21
2018-07-24T03:02:42.177Z,1010.19
2018-07-24T03:03:42.186Z,1010.20
2018-07-24T03:04:42.149Z,1010.21
2018-07-24T03:05:42.148Z,1010.20
2018-07-24T03:06:42.157Z,1010.21
2018-07-24T03:07:42.166Z,1010.23
2018-07-24T03:08:42.170Z,1010.18
2018-07-24T03:09:42.182Z,1010.17
2018-07-24T03:10:42.188Z,1010.19
2018-07-24T03:11:42.190Z,1010.15
2018-07-24T03:12:42.194Z,1010.17
2018-07-24T03:13:42.203Z,1010.15
2018-07-24T03:14:42.255Z,1010.17
2018-07-24T03:15:42.209Z,1010.18
2018-07-24T03:16:42.219Z,1010.19
2018-07-24T03:17:42.222Z,1010.19
2018-07-24T03:18:42.227Z,1010.17
2018-07-24T03:19:42.245Z,1010.18
2018-07-24T03:20:42.242Z,1010.20
2018-07-24T03:21:42.247Z,1010.18
2018-07-24T03:22:42.248Z,1010.14
2018-07-24T03:23:42.265Z,1010.13
2018-07-24T03:24:42.262Z,1010.21
2018-07-24T03:25:42.273Z,1010.17
2018-07-24T03:26:42.282Z,1010.15
2018-07-24T03:27:42.281Z,1010.18
2018-07-24T03:28:42.291Z,1010.17
2018-07-24T03:29:43.147Z,1010.17
2018-07-24T03:30:42.305Z,1010.14
2018-07-24T03:31:42.311Z,1010.19
2018-07-24T03:32:42.318Z,1010.19
2018-07-24T03:33:42.326Z,1010.19
2018-07-24T03:34:42.338Z,1010.18
2018-07-24T03:35:42.327Z,1010.20
2018-07-24T03:36:42.347Z,1010.18
2018-07-24T03:37:42.342Z,1010.20
2018-07-24T03:38:42.351Z,1010.22
2018-07-24T03:39:42.406Z,1010.24
2018-07-24T03:40:42.360Z,1010.24
2018-07-24T03:41:42.369Z,1010.21
2018-07-24T03:42:42.369Z,1010.20
2018-07-24T03:43:42.380Z,1010.22
2018-07-24T03:44:42.385Z,1010.24
2018-07-24T03:45:42.382Z,1010.25
2018-07-24T03:46:42.398Z,1010.27
2018-07-24T03:47:42.394Z,1010.27
2018-07-24T03:48:42.405Z,1010.26
2018-07-24T03:49:42.419Z,1010.29
2018-07-24T03:50:42.417Z,1010.27
2018-07-24T03:51:42.443Z,1010.29
2018-07-24T03:52:42.445Z,1010.27
2018-07-24T03:53:42.434Z,1010.31
2018-07-24T03:54:42.441Z,1010.29
2018-07-24T03:55:42.445Z,1010.30
2018-07-24T03:56:42.520Z,1010.30
2018-07-24T03:57:42.459Z,1010.31
2018-07-24T03:58:42.538Z,1010.31
2018-07-24T03:59:42.473Z,1010.32
2018-07-24T04:00:42.486Z,1010.33
2018-07-24T04:01:42.485Z,1010.35
2018-07-24T04:02:42.487Z,1010.35
2018-07-24T04:03:42.500Z,1010.30
2018-07-24T04:04:42.496Z,1010.33
2018-07-24T04:05:42.510Z,1010.34
2018-07-24T04:06:42.519Z,1010.31
2018-07-24T04:07:42.512Z,1010.33
2018-07-24T04:08:42.534Z,1010.32
2018-07-24T04:09:42.522Z,1010.31
2018-07-24T04:10:42.546Z,1010.35
2018-07-24T04:11:42.552Z,1010.37
2018-07-24T04:12:42.538Z,1010.38
2018-07-24T04:13:42.556Z,1010.36
2018-07-24T04:14:42.561Z,1010.36
2018-07-24T04:15:42.560Z,1010.39
2018-07-24T04:16:42.570Z,1010.38
2018-07-24T04:17:42.568Z,1010.42
2018-07-24T04:18:42.576Z,1010.45
2018-07-24T04:19:42.579Z,1010.44
2018-07-24T04:20:42.588Z,1010.48
2018-07-24T04:21:42.605Z,1010.44
2018-07-24T04:22:42.609Z,1010.48
2018-07-24T04:23:42.608Z,1010.50
2018-07-24T04:24:42.617Z,1010.48
2018-07-24T04:25:42.622Z,1010.43
2018-07-24T04:26:42.625Z,1010.47
2018-07-24T04:27:42.642Z,1010.48
2018-07-24T04:28:42.639Z,1010.46
2018-07-24T04:29:42.650Z,1010.40
2018-07-24T04:30:42.674Z,1010.37
2018-07-24T04:31:42.657Z,1010.36
2018-07-24T04:32:42.668Z,1010.33
2018-07-24T04:33:42.679Z,1010.39
2018-07-24T04:34:42.687Z,1010.35
2018-07-24T04:35:42.689Z,1010.36
2018-07-24T04:36:42.693Z,1010.38
2018-07-24T04:37:42.705Z,1010.40
2018-07-24T04:38:42.709Z,1010.38
2018-07-24T04:39:42.722Z,1010.39
2018-07-24T04:40:42.729Z,1010.39
2018-07-24T04:41:42.733Z,1010.40
2018-07-24T04:42:42.737Z,1010.39
2018-07-24T04:43:42.740Z,1010.39
2018-07-24T04:44:42.756Z,1010.39
2018-07-24T04:45:42.763Z,1010.39
2018-07-24T04:46:42.761Z,1010.36
2018-07-24T04:47:42.777Z,1010.36
2018-07-24T04:48:42.784Z,1010.35
2018-07-24T04:49:42.786Z,1010.38
2018-07-24T04:50:42.811Z,1010.36
2018-07-24T04:51:42.795Z,1010.36
2018-07-24T04:52:42.802Z,1010.35
2018-07-24T04:53:42.820Z,1010.37
2018-07-24T04:54:42.814Z,1010.38
2018-07-24T04:55:42.833Z,1010.36
2018-07-24T04:56:42.828Z,1010.34
2018-07-24T04:57:42.837Z,1010.32
2018-07-24T04:58:42.843Z,1010.34
2018-07-24T04:59:42.855Z,1010.35
2018-07-24T05:00:42.863Z,1010.37
2018-07-24T05:01:42.866Z,1010.32
2018-07-24T05:02:42.897Z,1010.36
2018-07-24T05:03:42.884Z,1010.37
2018-07-24T05:04:42.888Z,1010.34
2018-07-24T05:05:42.946Z,1010.35
2018-07-24T05:06:42.904Z,1010.33
2018-07-24T05:07:42.916Z,1010.35
2018-07-24T05:08:42.917Z,1010.33
2018-07-24T05:09:42.922Z,1010.35
2018-07-24T05:10:42.929Z,1010.37
2018-07-24T05:11:42.930Z,1010.38
2018-07-24T05:12:43.692Z,1010.39
2018-07-24T05:13:42.946Z,1010.39
2018-07-24T05:14:42.949Z,1010.40
2018-07-24T05:15:42.955Z,1010.38
2018-07-24T05:16:42.985Z,1010.40
2018-07-24T05:17:42.972Z,1010.36
2018-07-24T05:18:42.976Z,1010.37
2018-07-24T05:19:42.991Z,1010.40
2018-07-24T05:20:42.991Z,1010.36
2018-07-24T05:21:43.118Z,1010.40
2018-07-24T05:22:43.011Z,1010.39
2018-07-24T05:23:43.009Z,1010.39
2018-07-24T05:24:43.031Z,1010.43
2018-07-24T05:25:43.060Z,1010.41
2018-07-24T05:26:43.029Z,1010.42
2018-07-24T05:27:43.043Z,1010.40
2018-07-24T05:28:43.041Z,1010.41
2018-07-24T05:29:43.056Z,1010.46
2018-07-24T05:30:43.055Z,1010.42
2018-07-24T05:31:43.063Z,1010.41
2018-07-24T05:32:43.074Z,1010.44
2018-07-24T05:33:43.076Z,1010.50
2018-07-24T05:34:43.087Z,1010.49
2018-07-24T05:35:43.101Z,1010.54
2018-07-24T05:36:43.102Z,1010.74
2018-07-24T05:37:43.111Z,1010.69
2018-07-24T05:38:43.125Z,1010.82
2018-07-24T05:39:43.129Z,1010.83
2018-07-24T05:40:43.133Z,1010.83
2018-07-24T05:41:43.143Z,1010.85
2018-07-24T05:42:43.155Z,1010.88
2018-07-24T05:43:43.182Z,1010.82
2018-07-24T05:44:43.174Z,1010.85
2018-07-24T05:45:43.185Z,1010.86
2018-07-24T05:46:43.190Z,1010.85
2018-07-24T05:47:43.197Z,1010.83
2018-07-24T05:48:43.293Z,1010.87
2018-07-24T05:49:43.225Z,1010.91
2018-07-24T05:50:44.195Z,1010.90
2018-07-24T05:51:43.254Z,1010.94
2018-07-24T05:52:43.255Z,1010.96
2018-07-24T05:53:43.271Z,1010.96
2018-07-24T05:54:43.277Z,1010.96
2018-07-24T05:55:43.291Z,1010.93
2018-07-24T05:56:43.303Z,1010.95
2018-07-24T05:57:43.312Z,1010.93
2018-07-24T05:58:43.334Z,1010.96
2018-07-24T05:59:43.345Z,1010.95
2018-07-24T06:00:43.357Z,1010.94
2018-07-24T06:01:43.366Z,1011.00
2018-07-24T06:02:43.379Z,1011.02
2018-07-24T06:03:43.393Z,1011.00
2018-07-24T06:04:43.412Z,1011.02
2018-07-24T06:05:43.474Z,1011.06
2018-07-24T06:06:43.434Z,1011.09
2018-07-24T06:07:43.453Z,1011.06
2018-07-24T06:08:43.481Z,1011.08
2018-07-24T06:09:43.480Z,1011.09
2018-07-24T06:10:43.488Z,1011.06
2018-07-24T06:11:43.512Z,1011.11
2018-07-24T06:12:43.521Z,1011.14
2018-07-24T06:13:43.544Z,1011.13
2018-07-24T06:14:43.564Z,1011.16
2018-07-24T06:15:43.568Z,1011.14
2018-07-24T06:16:43.627Z,1011.16
2018-07-24T06:17:43.601Z,1011.17
2018-07-24T06:18:43.614Z,1011.15
2018-07-24T06:19:43.629Z,1011.18
2018-07-24T06:20:43.641Z,1011.21
2018-07-24T06:21:43.695Z,1011.24
2018-07-24T06:22:43.682Z,1011.25
2018-07-24T06:23:43.790Z,1011.32
2018-07-24T06:24:43.709Z,1011.32
2018-07-24T06:25:43.730Z,1011.28
2018-07-24T06:26:43.746Z,1011.33
2018-07-24T06:27:43.766Z,1011.34
2018-07-24T06:28:43.773Z,1011.35
2018-07-24T06:29:43.800Z,1011.31
2018-07-24T06:30:43.811Z,1011.34
2018-07-24T06:31:43.835Z,1011.33
2018-07-24T06:32:43.843Z,1011.34
2018-07-24T06:33:43.874Z,1011.35
2018-07-24T06:34:43.883Z,1011.32
2018-07-24T06:35:43.907Z,1011.33
2018-07-24T06:36:43.917Z,1011.31
2018-07-24T06:37:43.932Z,1011.30
2018-07-24T06:38:43.954Z,1011.30
2018-07-24T06:39:43.996Z,1011.36
2018-07-24T06:40:43.998Z,1011.33
2018-07-24T06:41:44.011Z,1011.35
2018-07-24T06:42:44.026Z,1011.35
2018-07-24T06:43:44.050Z,1011.34
2018-07-24T06:44:44.090Z,1011.39
2018-07-24T06:45:44.092Z,1011.36
2018-07-24T06:46:44.721Z,1011.36
2018-07-24T06:47:44.121Z,1011.34
2018-07-24T06:48:44.159Z,1011.33
2018-07-24T06:49:44.171Z,1011.35
2018-07-24T06:50:44.181Z,1011.39
2018-07-24T06:51:44.383Z,1011.38
2018-07-24T06:52:44.218Z,1011.41
2018-07-24T06:53:44.242Z,1011.39
2018-07-24T06:54:44.263Z,1011.44
2018-07-24T06:55:44.276Z,1011.40
2018-07-24T06:56:44.343Z,1011.42
2018-07-24T06:57:44.322Z,1011.43
2018-07-24T06:58:44.335Z,1011.44
2018-07-24T06:59:44.365Z,1011.43
2018-07-24T07:00:44.378Z,1011.45
2018-07-24T07:01:44.401Z,1011.47
2018-07-24T07:02:44.426Z,1011.42
2018-07-24T07:03:44.438Z,1011.44
2018-07-24T07:04:44.464Z,1011.46
2018-07-24T07:05:44.481Z,1011.41
2018-07-24T07:06:44.502Z,1011.39
2018-07-24T07:07:44.568Z,1011.42
2018-07-24T07:08:44.541Z,1011.41
2018-07-24T07:09:44.568Z,1011.37
2018-07-24T07:10:44.590Z,1011.40
2018-07-24T07:11:44.609Z,1011.39
2018-07-24T07:12:44.635Z,1011.38
2018-07-24T07:13:44.645Z,1011.35
2018-07-24T07:14:44.672Z,1011.37
2018-07-24T07:15:44.688Z,1011.36
2018-07-24T07:16:44.711Z,1011.38
2018-07-24T07:17:44.730Z,1011.37
2018-07-24T07:18:44.759Z,1011.35
2018-07-24T07:19:44.778Z,1011.37
2018-07-24T07:20:44.808Z,1011.40
2018-07-24T07:21:44.816Z,1011.40
2018-07-24T07:22:44.841Z,1011.37
2018-07-24T07:23:44.863Z,1011.42
2018-07-24T07:24:44.885Z,1011.41
2018-07-24T07:25:44.907Z,1011.40
2018-07-24T07:26:44.932Z,1011.39
2018-07-24T07:27:44.949Z,1011.41
2018-07-24T07:28:44.971Z,1011.40
2018-07-24T07:29:44.990Z,1011.42
2018-07-24T07:30:45.016Z,1011.42
2018-07-24T07:31:45.035Z,1011.42
2018-07-24T07:32:45.064Z,1011.39
2018-07-24T07:33:45.077Z,1011.40
2018-07-24T07:34:45.109Z,1011.37
2018-07-24T07:35:45.122Z,1011.37
2018-07-24T07:36:45.153Z,1011.36
2018-07-24T07:37:45.167Z,1011.34
2018-07-24T07:38:45.197Z,1011.39
2018-07-24T07:39:45.213Z,1011.41
2018-07-24T07:40:45.253Z,1011.36
2018-07-24T07:41:45.266Z,1011.44
2018-07-24T07:42:45.279Z,1011.37
2018-07-24T07:43:45.311Z,1011.38
2018-07-24T07:44:45.334Z,1011.38
2018-07-24T07:45:45.356Z,1011.41
2018-07-24T07:46:45.389Z,1011.40
2018-07-24T07:47:45.398Z,1011.44
2018-07-24T07:48:45.419Z,1011.43
2018-07-24T07:49:45.452Z,1011.41
2018-07-24T07:50:45.479Z,1011.43
2018-07-24T07:51:45.499Z,1011.44
2018-07-24T07:52:45.517Z,1011.48
2018-07-24T07:53:45.537Z,1011.47
2018-07-24T07:54:45.561Z,1011.42
2018-07-24T07:55:45.599Z,1011.41
2018-07-24T07:56:45.608Z,1011.44
2018-07-24T07:57:45.640Z,1011.41
2018-07-24T07:58:45.676Z,1011.43
2018-07-24T07:59:45.684Z,1011.41
2018-07-24T08:00:45.701Z,1011.44
2018-07-24T08:01:45.738Z,1011.42
2018-07-24T08:02:45.753Z,1011.47
2018-07-24T08:03:45.778Z,1011.50
2018-07-24T08:04:45.805Z,1011.47
2018-07-24T08:05:45.826Z,1011.45
2018-07-24T08:06:45.848Z,1011.44
2018-07-24T08:07:45.876Z,1011.45
2018-07-24T08:08:45.903Z,1011.44
2018-07-24T08:09:45.922Z,1011.41
2018-07-24T08:10:45.944Z,1011.43
2018-07-24T08:11:46.096Z,1011.43
2018-07-24T08:12:46.057Z,1011.46
2018-07-24T08:13:46.280Z,1011.45
2018-07-24T08:14:46.140Z,1011.40
2018-07-24T08:15:46.141Z,1011.41
2018-07-24T08:16:46.110Z,1011.42
2018-07-24T08:17:46.358Z,1011.47
2018-07-24T08:18:46.143Z,1011.46
2018-07-24T08:19:46.160Z,1011.43
2018-07-24T08:20:46.308Z,1011.47
2018-07-24T08:21:46.298Z,1011.46
2018-07-24T08:22:46.258Z,1011.48
2018-07-24T08:23:46.265Z,1011.47
2018-07-24T08:24:46.289Z,1011.49
2018-07-24T08:25:46.380Z,1011.46
2018-07-24T08:26:46.335Z,1011.47
2018-07-24T08:27:46.535Z,1011.46
2018-07-24T08:28:46.399Z,1011.46
2018-07-24T08:29:46.456Z,1011.49
2018-07-24T08:30:46.438Z,1011.48
2018-07-24T08:31:46.460Z,1011.49
2018-07-24T08:32:46.476Z,1011.50
2018-07-24T08:33:46.511Z,1011.48
2018-07-24T08:34:46.526Z,1011.47
2018-07-24T08:35:46.623Z,1011.47
2018-07-24T08:36:46.581Z,1011.46
2018-07-24T08:37:46.607Z,1011.48
2018-07-24T08:38:46.635Z,1011.47
2018-07-24T08:39:46.698Z,1011.48
2018-07-24T08:40:46.700Z,1011.51
2018-07-24T08:41:46.706Z,1011.50
2018-07-24T08:42:46.734Z,1011.49
2018-07-24T08:43:46.750Z,1011.45
2018-07-24T08:44:46.796Z,1011.46
2018-07-24T08:45:46.813Z,1011.47
2018-07-24T08:46:46.838Z,1011.43
2018-07-24T08:47:46.859Z,1011.42
2018-07-24T08:48:47.838Z,1011.45
2018-07-24T08:49:46.900Z,1011.47
2018-07-24T08:50:46.927Z,1011.45
2018-07-24T08:51:46.956Z,1011.49
2018-07-24T08:52:47.070Z,1011.46
2018-07-24T08:53:47.501Z,1011.46
2018-07-24T08:54:47.215Z,1011.43
2018-07-24T08:55:47.424Z,1011.39
2018-07-24T08:56:47.077Z,1011.41
2018-07-24T08:57:47.181Z,1011.40
2018-07-24T08:58:47.131Z,1011.43
2018-07-24T08:59:47.158Z,1011.47
2018-07-24T09:00:47.184Z,1011.40
2018-07-24T09:01:47.206Z,1011.41
2018-07-24T09:02:47.232Z,1011.44
2018-07-24T09:03:47.276Z,1011.51
2018-07-24T09:04:47.286Z,1011.50
2018-07-24T09:05:47.311Z,1011.40
2018-07-24T09:06:47.331Z,1011.34
2018-07-24T09:07:47.379Z,1011.31
2018-07-24T09:08:47.387Z,1011.34
2018-07-24T09:09:47.413Z,1011.35
2018-07-24T09:10:47.443Z,1011.34
2018-07-24T09:11:47.552Z,1011.39
2018-07-24T09:12:47.484Z,1011.33
2018-07-24T09:13:47.514Z,1011.33
2018-07-24T09:14:47.556Z,1011.36
2018-07-24T09:15:47.609Z,1011.34
2018-07-24T09:16:47.583Z,1011.30
2018-07-24T09:17:48.254Z,1011.32
2018-07-24T09:18:47.633Z,1011.30
2018-07-24T09:19:47.665Z,1011.37
2018-07-24T09:20:47.714Z,1011.42
2018-07-24T09:21:47.708Z,1011.39
2018-07-24T09:22:47.748Z,1011.43
2018-07-24T09:23:47.772Z,1011.45
2018-07-24T09:24:47.791Z,1011.46
2018-07-24T09:25:47.823Z,1011.44
2018-07-24T09:26:47.837Z,1011.41
2018-07-24T09:27:47.863Z,1011.43
2018-07-24T09:28:47.884Z,1011.51
2018-07-24T09:29:48.012Z,1011.56
2018-07-24T09:30:47.937Z,1011.50
2018-07-24T09:31:47.967Z,1011.50
2018-07-24T09:32:47.989Z,1011.47
2018-07-24T09:33:48.009Z,1011.48
2018-07-24T09:34:48.039Z,1011.43
2018-07-24T09:35:48.071Z,1011.42
2018-07-24T09:36:48.085Z,1011.43
2018-07-24T09:37:48.119Z,1011.46
2018-07-24T09:38:48.147Z,1011.53
2018-07-24T09:39:48.170Z,1011.61
2018-07-24T09:40:48.195Z,1011.69
2018-07-24T09:41:48.216Z,1011.65
2018-07-24T09:42:48.234Z,1011.53
2018-07-24T09:43:48.260Z,1011.44
2018-07-24T09:44:48.301Z,1011.46
2018-07-24T09:45:48.340Z,1011.41
2018-07-24T09:46:48.342Z,1011.35
2018-07-24T09:47:48.365Z,1011.25
2018-07-24T09:48:48.391Z,1011.14
2018-07-24T09:49:48.419Z,1010.96
2018-07-24T09:50:48.436Z,1010.79
2018-07-24T09:51:48.469Z,1010.63
2018-07-24T09:52:48.493Z,1010.56
2018-07-24T09:53:48.511Z,1010.45
2018-07-24T09:54:48.541Z,1010.43
2018-07-24T09:55:48.566Z,1010.39
2018-07-24T09:56:48.590Z,1010.36
2018-07-24T09:57:48.618Z,1010.32
2018-07-24T09:58:48.656Z,1010.32
2018-07-24T09:59:48.662Z,1010.28
2018-07-24T10:00:48.695Z,1010.26
2018-07-24T10:01:48.717Z,1010.25
2018-07-24T10:02:48.775Z,1010.21
2018-07-24T10:03:48.760Z,1010.20
2018-07-24T10:04:48.792Z,1010.21
2018-07-24T10:05:48.822Z,1010.19
2018-07-24T10:06:48.833Z,1010.16
2018-07-24T10:07:48.867Z,1010.19
2018-07-24T10:08:48.909Z,1010.16
2018-07-24T10:09:48.916Z,1010.20
2018-07-24T10:10:48.947Z,1010.09
2018-07-24T10:11:48.965Z,1010.11
2018-07-24T10:12:49.119Z,1010.09
2018-07-24T10:13:49.007Z,1010.08
2018-07-24T10:14:49.039Z,1010.08
2018-07-24T10:15:49.063Z,1010.04
2018-07-24T10:16:49.109Z,1010.07
2018-07-24T10:17:49.116Z,1010.06
2018-07-24T10:18:49.161Z,1010.04
2018-07-24T10:19:49.162Z,1010.01
2018-07-24T10:20:49.185Z,1009.99
2018-07-24T10:21:49.222Z,1009.94
2018-07-24T10:22:49.238Z,1009.97
2018-07-24T10:23:49.265Z,1009.97
2018-07-24T10:24:49.293Z,1009.97
2018-07-24T10:25:49.307Z,1009.94
2018-07-24T10:26:49.343Z,1009.91
2018-07-24T10:27:49.359Z,1009.94
2018-07-24T10:28:49.388Z,1009.98
2018-07-24T10:29:49.417Z,1009.95
2018-07-24T10:30:49.447Z,1009.92
2018-07-24T10:31:49.463Z,1009.94
2018-07-24T10:32:49.478Z,1009.91
2018-07-24T10:33:49.511Z,1009.88
2018-07-24T10:34:49.543Z,1009.80
2018-07-24T10:35:49.553Z,1009.78
2018-07-24T10:36:49.579Z,1009.80
2018-07-24T10:37:49.607Z,1009.82
2018-07-24T10:38:49.625Z,1009.81
2018-07-24T10:39:49.659Z,1009.76
2018-07-24T10:40:49.687Z,1009.69
2018-07-24T10:41:49.706Z,1009.67
2018-07-24T10:42:49.725Z,1009.66
2018-07-24T10:43:49.746Z,1009.65
2018-07-24T10:44:49.773Z,1009.66
2018-07-24T10:45:49.797Z,1009.62
2018-07-24T10:46:49.855Z,1009.62
2018-07-24T10:47:49.847Z,1009.62
2018-07-24T10:48:49.870Z,1009.64
2018-07-24T10:49:49.888Z,1009.61
2018-07-24T10:50:49.920Z,1009.66
2018-07-24T10:51:49.962Z,1009.62
2018-07-24T10:52:49.987Z,1009.59
2018-07-24T10:53:49.991Z,1009.57
2018-07-24T10:54:50.005Z,1009.53
2018-07-24T10:55:50.040Z,1009.54
2018-07-24T10:56:50.059Z,1009.54
2018-07-24T10:57:50.090Z,1009.52
2018-07-24T10:58:50.112Z,1009.55
2018-07-24T10:59:50.127Z,1009.51
2018-07-24T11:00:50.157Z,1009.53
2018-07-24T11:01:50.175Z,1009.55
2018-07-24T11:02:50.205Z,1009.52
2018-07-24T11:03:50.227Z,1009.49
2018-07-24T11:04:50.255Z,1009.51
2018-07-24T11:05:50.281Z,1009.54
2018-07-24T11:06:50.299Z,1009.48
2018-07-24T11:07:50.318Z,1009.55
2018-07-24T11:08:50.345Z,1009.53
2018-07-24T11:09:50.366Z,1009.54
2018-07-24T11:10:50.427Z,1009.49
2018-07-24T11:11:50.421Z,1009.50
2018-07-24T11:12:50.441Z,1009.53
2018-07-24T11:13:50.461Z,1009.51
2018-07-24T11:14:50.491Z,1009.52
2018-07-24T11:15:50.528Z,1009.48
2018-07-24T11:16:50.531Z,1009.48
2018-07-24T11:17:50.559Z,1009.46
2018-07-24T11:18:50.624Z,1009.45
2018-07-24T11:19:50.607Z,1009.45
2018-07-24T11:20:50.614Z,1009.44
2018-07-24T11:21:50.645Z,1009.43
2018-07-24T11:22:50.948Z,1009.44
2018-07-24T11:23:50.697Z,1009.42
2018-07-24T11:24:50.709Z,1009.46
2018-07-24T11:25:50.739Z,1009.45
2018-07-24T11:26:50.757Z,1009.41
2018-07-24T11:27:50.782Z,1009.40
2018-07-24T11:28:50.829Z,1009.33
2018-07-24T11:29:50.912Z,1009.31
2018-07-24T11:30:50.859Z,1009.31
2018-07-24T11:31:50.920Z,1009.25
2018-07-24T11:32:50.936Z,1009.21
2018-07-24T11:33:50.915Z,1009.18
2018-07-24T11:34:50.939Z,1009.26
2018-07-24T11:35:51.083Z,1009.27
2018-07-24T11:36:50.979Z,1009.26
2018-07-24T11:37:51.027Z,1009.23
2018-07-24T11:38:51.025Z,1009.26
2018-07-24T11:39:51.042Z,1009.24
2018-07-24T11:40:51.061Z,1009.25
2018-07-24T11:41:51.089Z,1009.20
2018-07-24T11:42:51.103Z,1009.17
2018-07-24T11:43:51.132Z,1009.19
2018-07-24T11:44:51.158Z,1009.20
2018-07-24T11:45:51.165Z,1009.18
2018-07-24T11:46:51.189Z,1009.15
2018-07-24T11:47:51.222Z,1009.16
2018-07-24T11:48:51.231Z,1009.15
2018-07-24T11:49:51.255Z,1009.17
2018-07-24T11:50:51.275Z,1009.09
2018-07-24T11:51:51.354Z,1009.12
2018-07-24T11:52:51.339Z,1009.11
2018-07-24T11:53:51.341Z,1009.06
2018-07-24T11:54:51.362Z,1009.11
2018-07-24T11:55:51.375Z,1009.09
2018-07-24T11:56:51.400Z,1009.10
2018-07-24T11:57:51.497Z,1009.01
2018-07-24T11:58:51.441Z,1009.09
2018-07-24T11:59:51.465Z,1009.02
2018-07-24T12:00:51.488Z,1009.04
2018-07-24T12:01:51.498Z,1008.99
2018-07-24T12:02:51.527Z,1008.97
2018-07-24T12:03:51.535Z,1009.01
2018-07-24T12:04:51.604Z,1008.92
2018-07-24T12:05:51.570Z,1008.93